Time;durP1;ratioP1;P1;durP2;ratioP2;P2;SDS_P1;SDS_P2;PMS_P1;PMS_P2;Temp;Humidity;BMP_temperature;BMP_pressure;BME280_temperature;BME280_humidity;BME280_pressure;Samples;Min_cycle;Max_cycle;Signal;HPM_P1;HPM_P2
2023/05/18 00:01:29;;;;;;;1.08;0.63;;;16.90;82.50;;;;;;6337693;22;20003;-78
2023/05/18 00:03:55;;;;;;;2.60;0.93;;;17.00;82.40;;;;;;6338558;22;20003;-78
2023/05/18 00:06:24;;;;;;;1.35;0.70;;;16.90;81.90;;;;;;6337779;22;20003;-78
2023/05/18 00:08:50;;;;;;;1.52;0.63;;;16.90;81.60;;;;;;6337754;22;20003;-78
2023/05/18 00:11:16;;;;;;;1.65;0.90;;;17.00;81.30;;;;;;6338447;22;20013;-78
2023/05/18 00:13:42;;;;;;;3.72;0.70;;;16.90;80.90;;;;;;6338572;22;19999;-78
2023/05/18 00:16:10;;;;;;;0.73;0.60;;;16.90;80.60;;;;;;6337777;22;20021;-78
2023/05/18 00:18:36;;;;;;;1.48;0.63;;;16.90;80.20;;;;;;6337211;22;20074;-79
2023/05/18 00:21:02;;;;;;;1.83;0.70;;;16.90;80.60;;;;;;6338189;22;20033;-78
2023/05/18 00:23:31;;;;;;;2.58;0.80;;;16.90;80.70;;;;;;6338331;22;20010;-79
2023/05/18 00:26:01;;;;;;;0.73;0.60;;;16.90;80.90;;;;;;6337591;22;20082;-79
2023/05/18 00:28:28;;;;;;;1.98;0.95;;;16.80;80.70;;;;;;6337229;22;20301;-79
2023/05/18 00:30:54;;;;;;;0.55;0.40;;;16.80;80.60;;;;;;6337547;22;20067;-79
2023/05/18 00:33:20;;;;;;;2.17;0.52;;;16.80;80.60;;;;;;6338343;22;19999;-79
2023/05/18 00:35:46;;;;;;;1.65;0.70;;;16.80;80.80;;;;;;6338082;22;20428;-80
2023/05/18 00:38:14;;;;;;;0.95;0.60;;;16.70;80.30;;;;;;6338089;22;20005;-79
2023/05/18 00:40:40;;;;;;;4.45;0.90;;;16.70;80.20;;;;;;6337974;22;20056;-79
2023/05/18 00:43:06;;;;;;;1.90;0.57;;;16.70;80.40;;;;;;6338504;22;20037;-78
2023/05/18 00:45:32;;;;;;;3.50;0.93;;;16.70;80.60;;;;;;6337819;22;19999;-78
2023/05/18 00:47:57;;;;;;;2.47;0.90;;;16.70;80.40;;;;;;6337930;22;20038;-79
2023/05/18 00:50:23;;;;;;;1.55;1.08;;;16.60;80.30;;;;;;6337885;22;19999;-79
2023/05/18 00:52:50;;;;;;;0.98;0.70;;;16.60;80.30;;;;;;6338524;22;20075;-79
2023/05/18 00:55:16;;;;;;;1.75;0.90;;;16.60;80.50;;;;;;6309927;22;20003;-79
2023/05/18 00:57:43;;;;;;;1.83;0.80;;;16.50;79.90;;;;;;6337848;22;20317;-79
2023/05/18 01:00:12;;;;;;;2.03;0.90;;;16.50;79.70;;;;;;6337688;22;20055;-81
2023/05/18 01:02:41;;;;;;;2.17;1.00;;;16.40;80.00;;;;;;6338163;22;20429;-81
2023/05/18 01:05:09;;;;;;;0.57;0.52;;;16.40;80.20;;;;;;6338043;22;20009;-78
2023/05/18 01:07:41;;;;;;;2.85;1.30;;;16.40;80.10;;;;;;6337366;22;20443;-78
2023/05/18 01:10:08;;;;;;;0.65;0.57;;;16.40;80.00;;;;;;6337405;22;19998;-79
2023/05/18 01:12:49;;;;;;;1.13;0.80;;;16.40;79.90;;;;;;6338115;22;20026;-78
2023/05/18 01:15:31;;;;;;;2.70;0.70;;;16.40;79.90;;;;;;6337965;22;19999;-79
2023/05/18 01:18:03;;;;;;;1.05;0.63;;;16.40;80.10;;;;;;6337022;22;20432;-79
2023/05/18 01:20:37;;;;;;;0.70;0.70;;;16.40;80.10;;;;;;6337550;22;20081;-79
2023/05/18 01:23:40;;;;;;;1.35;0.82;;;16.40;80.20;;;;;;6309540;22;20371;-78
2023/05/18 01:26:16;;;;;;;1.40;0.63;;;16.40;80.20;;;;;;6308305;22;20003;-78
2023/05/18 01:28:45;;;;;;;2.90;1.00;;;16.40;80.20;;;;;;6336593;22;20014;-78
2023/05/18 01:31:13;;;;;;;1.95;0.90;;;16.30;80.40;;;;;;6339591;22;20026;-77
2023/05/18 01:33:38;;;;;;;0.98;0.60;;;16.30;80.60;;;;;;6339519;22;19994;-78
2023/05/18 01:36:04;;;;;;;1.95;0.93;;;16.30;80.50;;;;;;6339692;22;19998;-78
2023/05/18 01:38:30;;;;;;;1.15;0.73;;;16.30;80.60;;;;;;6339663;22;20003;-78
2023/05/18 01:41:17;;;;;;;2.42;0.75;;;16.20;80.40;;;;;;6339828;22;20027;-78
2023/05/18 01:44:11;;;;;;;0.98;0.70;;;16.20;80.50;;;;;;6339160;22;20407;-79
2023/05/18 01:46:51;;;;;;;1.23;0.80;;;16.20;80.60;;;;;;6339937;22;20421;-78
2023/05/18 01:49:26;;;;;;;1.52;0.73;;;16.20;80.90;;;;;;6339951;22;20074;-79
2023/05/18 01:51:53;;;;;;;2.00;0.80;;;16.20;81.20;;;;;;6339482;22;20044;-79
2023/05/18 01:54:21;;;;;;;1.35;0.70;;;16.20;81.10;;;;;;6339017;22;20017;-79
2023/05/18 01:56:49;;;;;;;2.92;0.80;;;16.10;81.40;;;;;;6339317;22;20381;-79
2023/05/18 01:59:16;;;;;;;2.35;0.77;;;16.10;81.50;;;;;;6339232;22;19995;-79
2023/05/18 02:01:41;;;;;;;1.75;0.90;;;16.10;81.60;;;;;;6340058;22;20025;-78
2023/05/18 02:04:10;;;;;;;1.85;0.70;;;16.10;81.50;;;;;;6339530;22;20401;-78
2023/05/18 02:06:36;;;;;;;6.45;1.08;;;16.10;81.00;;;;;;6339501;22;20027;-79
2023/05/18 02:09:04;;;;;;;3.05;1.15;;;16.00;81.10;;;;;;6338795;22;20026;-78
2023/05/18 02:11:30;;;;;;;1.40;0.88;;;16.00;81.00;;;;;;6339330;22;19999;-78
2023/05/18 02:13:55;;;;;;;2.58;0.98;;;16.00;81.30;;;;;;6339163;22;19999;-78
2023/05/18 02:16:21;;;;;;;1.50;0.90;;;16.00;81.30;;;;;;6339914;22;20024;-77
2023/05/18 02:18:47;;;;;;;1.10;0.73;;;16.00;81.50;;;;;;6311588;22;20345;-78
2023/05/18 02:21:13;;;;;;;1.20;0.80;;;16.00;81.30;;;;;;6339702;22;20074;-78
2023/05/18 02:23:40;;;;;;;1.60;0.90;;;16.00;80.90;;;;;;6338757;22;20322;-78
2023/05/18 02:26:06;;;;;;;2.38;0.98;;;16.00;81.00;;;;;;6339294;22;20038;-77
2023/05/18 02:28:31;;;;;;;4.22;1.05;;;16.00;81.20;;;;;;6338326;22;20015;-77
2023/05/18 02:31:07;;;;;;;2.70;0.80;;;15.90;81.20;;;;;;6338966;22;20003;-78
2023/05/18 02:33:38;;;;;;;1.45;1.08;;;16.00;81.00;;;;;;6339065;22;20075;-78
2023/05/18 02:36:06;;;;;;;1.48;1.00;;;15.90;81.20;;;;;;6339373;22;20283;-78
2023/05/18 02:38:31;;;;;;;1.85;0.85;;;15.90;81.20;;;;;;6338867;22;20069;-78
2023/05/18 02:40:57;;;;;;;1.10;0.88;;;15.90;81.10;;;;;;6339017;22;20030;-78
2023/05/18 02:43:23;;;;;;;1.35;0.75;;;15.80;80.90;;;;;;6339314;22;20002;-78
2023/05/18 02:45:48;;;;;;;0.93;0.80;;;15.80;81.10;;;;;;6338978;22;20359;-78
2023/05/18 02:48:14;;;;;;;1.77;0.80;;;15.80;81.20;;;;;;6337665;22;20005;-78
2023/05/18 02:50:40;;;;;;;1.42;0.93;;;15.80;81.20;;;;;;6338803;22;19999;-78
2023/05/18 02:53:06;;;;;;;3.92;0.80;;;15.70;81.00;;;;;;6337901;22;20052;-78
2023/05/18 02:55:31;;;;;;;1.55;0.68;;;15.70;80.90;;;;;;6338285;22;20026;-78
2023/05/18 02:57:58;;;;;;;0.52;0.50;;;15.70;81.20;;;;;;6339006;22;20006;-78
2023/05/18 03:00:24;;;;;;;1.15;0.70;;;15.70;81.40;;;;;;6339420;22;20003;-78
2023/05/18 03:02:50;;;;;;;2.20;0.60;;;15.70;81.10;;;;;;6339458;22;20033;-78
2023/05/18 03:05:17;;;;;;;0.60;0.60;;;15.60;81.10;;;;;;6338622;22;20003;-77
2023/05/18 03:07:49;;;;;;;0.77;0.52;;;15.60;81.20;;;;;;6338936;22;20003;-77
2023/05/18 03:10:15;;;;;;;1.55;0.80;;;15.60;81.10;;;;;;6327210;22;20003;-78
2023/05/18 03:12:41;;;;;;;1.02;0.50;;;15.60;81.50;;;;;;6339168;22;19994;-77
2023/05/18 03:15:08;;;;;;;0.60;0.60;;;15.60;81.70;;;;;;6338204;22;19998;-78
2023/05/18 03:17:33;;;;;;;1.48;0.80;;;15.60;81.80;;;;;;6338454;22;20074;-78
2023/05/18 03:20:00;;;;;;;1.73;1.00;;;15.50;81.70;;;;;;6311731;22;20041;-78
2023/05/18 03:22:25;;;;;;;1.67;0.68;;;15.50;82.20;;;;;;6338721;22;20014;-77
2023/05/18 03:24:54;;;;;;;1.80;0.70;;;15.50;82.60;;;;;;6337803;22;20329;-78
2023/05/18 03:27:24;;;;;;;1.92;0.80;;;15.50;82.60;;;;;;6338982;22;20025;-78
2023/05/18 03:29:51;;;;;;;2.58;0.80;;;15.50;82.50;;;;;;6311174;22;20556;-78
2023/05/18 03:32:18;;;;;;;0.65;0.50;;;15.50;82.60;;;;;;6338909;22;19999;-78
2023/05/18 03:34:46;;;;;;;0.75;0.55;;;15.50;82.40;;;;;;6338082;22;20025;-78
2023/05/18 03:37:12;;;;;;;1.40;0.88;;;15.50;82.10;;;;;;6338509;22;20007;-77
2023/05/18 03:39:38;;;;;;;2.38;0.70;;;15.40;81.80;;;;;;6339030;22;19999;-77
2023/05/18 03:42:04;;;;;;;1.35;0.63;;;15.30;82.10;;;;;;6311060;22;20025;-77
2023/05/18 03:44:29;;;;;;;1.77;0.95;;;15.30;82.40;;;;;;6338784;22;20090;-77
2023/05/18 03:46:55;;;;;;;0.95;0.60;;;15.20;82.50;;;;;;6338855;22;20417;-77
2023/05/18 03:49:21;;;;;;;2.40;0.73;;;15.20;82.70;;;;;;6339068;22;20078;-78
2023/05/18 03:51:46;;;;;;;1.35;0.90;;;15.20;83.10;;;;;;6310948;22;20082;-77
2023/05/18 03:54:12;;;;;;;2.08;0.80;;;15.20;83.30;;;;;;6337902;22;19994;-77
2023/05/18 03:56:38;;;;;;;1.75;0.80;;;15.20;83.40;;;;;;6338203;22;20003;-78
2023/05/18 03:59:03;;;;;;;3.03;1.02;;;15.20;83.60;;;;;;6338088;22;19994;-78
2023/05/18 04:01:33;;;;;;;1.50;0.88;;;15.20;83.50;;;;;;6338186;22;20006;-78
2023/05/18 04:03:59;;;;;;;1.80;0.95;;;15.20;83.30;;;;;;6338497;22;20009;-78
2023/05/18 04:06:25;;;;;;;1.27;0.70;;;15.10;83.30;;;;;;6338487;22;20003;-78
2023/05/18 04:08:54;;;;;;;2.90;1.10;;;15.10;83.70;;;;;;6338213;22;20002;-78
2023/05/18 04:11:21;;;;;;;1.40;0.75;;;15.10;83.90;;;;;;6338554;22;19999;-78
2023/05/18 04:13:46;;;;;;;2.22;0.95;;;15.10;83.90;;;;;;6310649;22;20078;-78
2023/05/18 04:16:12;;;;;;;1.73;1.02;;;15.20;83.70;;;;;;6338543;22;20026;-78
2023/05/18 04:18:41;;;;;;;1.65;1.00;;;15.20;83.70;;;;;;6338451;22;20006;-78
2023/05/18 04:21:07;;;;;;;2.00;0.93;;;15.20;83.60;;;;;;6338577;22;20003;-78
2023/05/18 04:23:37;;;;;;;1.13;0.80;;;15.20;83.40;;;;;;6338474;22;20399;-77
2023/05/18 04:26:04;;;;;;;1.08;0.77;;;15.20;83.10;;;;;;6338775;22;20022;-78
2023/05/18 04:28:30;;;;;;;3.22;1.00;;;15.20;82.90;;;;;;6338272;22;20017;-79
2023/05/18 04:30:57;;;;;;;1.48;0.90;;;15.30;83.00;;;;;;6338572;22;20081;-82
2023/05/18 04:33:23;;;;;;;2.92;1.10;;;15.30;82.70;;;;;;6338374;22;20464;-77
2023/05/18 04:35:53;;;;;;;2.95;0.93;;;15.30;83.10;;;;;;6338075;22;19999;-76
2023/05/18 04:38:22;;;;;;;1.58;0.82;;;15.30;82.90;;;;;;6338981;22;20071;-76
2023/05/18 04:40:49;;;;;;;2.58;0.70;;;15.30;82.90;;;;;;6338598;22;20002;-76
2023/05/18 04:43:19;;;;;;;5.70;1.02;;;15.30;82.80;;;;;;6337012;22;20003;-75
2023/05/18 04:45:45;;;;;;;1.70;0.80;;;15.40;82.90;;;;;;6337557;22;20458;-75
2023/05/18 04:48:16;;;;;;;1.05;0.70;;;15.40;82.60;;;;;;6338011;22;20003;-75
2023/05/18 04:50:42;;;;;;;2.47;0.75;;;15.40;82.60;;;;;;6337422;22;20007;-75
2023/05/18 04:53:11;;;;;;;1.08;0.65;;;15.40;82.20;;;;;;6337991;22;20432;-76
2023/05/18 04:55:36;;;;;;;0.90;0.75;;;15.40;81.40;;;;;;6337703;22;20302;-76
2023/05/18 04:58:03;;;;;;;1.25;0.80;;;15.40;81.10;;;;;;6310728;22;19999;-79
2023/05/18 05:00:29;;;;;;;3.90;0.77;;;15.40;79.80;;;;;;6337701;22;19999;-79
2023/05/18 05:02:56;;;;;;;1.10;0.70;;;15.40;79.70;;;;;;6338272;22;20048;-80
2023/05/18 05:05:23;;;;;;;2.08;0.88;;;15.40;79.80;;;;;;6340075;22;20002;-80
2023/05/18 05:07:50;;;;;;;1.85;0.82;;;15.40;79.30;;;;;;6339555;22;20005;-80
2023/05/18 05:10:16;;;;;;;1.63;1.08;;;15.50;79.60;;;;;;6339922;22;20007;-80
2023/05/18 05:12:41;;;;;;;1.05;0.80;;;15.50;79.80;;;;;;6339139;22;20417;-80
2023/05/18 05:15:08;;;;;;;1.10;0.73;;;15.50;79.30;;;;;;6311928;22;20003;-80
2023/05/18 05:17:34;;;;;;;2.05;1.00;;;15.60;78.40;;;;;;6339698;22;20019;-80
2023/05/18 05:19:59;;;;;;;2.10;1.02;;;15.60;79.10;;;;;;6339666;22;20002;-80
2023/05/18 05:22:25;;;;;;;5.43;0.95;;;15.60;78.90;;;;;;6338467;22;20018;-83
2023/05/18 05:24:51;;;;;;;1.08;0.82;;;15.70;79.10;;;;;;6338604;22;20007;-84
2023/05/18 05:27:17;;;;;;;1.80;1.00;;;15.80;79.30;;;;;;6339943;22;20347;-83
2023/05/18 05:29:45;;;;;;;2.75;0.57;;;15.90;78.70;;;;;;6340520;22;20462;-82
2023/05/18 05:32:12;;;;;;;0.95;0.60;;;15.90;78.40;;;;;;6339818;22;19994;-82
2023/05/18 05:34:38;;;;;;;0.95;0.60;;;15.90;79.00;;;;;;6340283;22;20010;-82
2023/05/18 05:37:04;;;;;;;1.10;0.60;;;16.00;79.30;;;;;;6340334;22;20014;-83
2023/05/18 05:39:30;;;;;;;1.13;0.60;;;16.10;79.60;;;;;;6339932;22;19999;-84
2023/05/18 05:41:56;;;;;;;2.17;0.82;;;16.20;78.80;;;;;;6339683;22;20082;-84
2023/05/18 05:44:22;;;;;;;1.20;0.70;;;16.20;79.00;;;;;;6339904;22;19998;-84
2023/05/18 05:46:47;;;;;;;1.00;0.75;;;16.20;78.30;;;;;;6341000;22;20011;-84
2023/05/18 05:49:13;;;;;;;1.02;0.57;;;16.20;77.70;;;;;;6340310;22;20333;-84
2023/05/18 05:51:39;;;;;;;0.70;0.50;;;16.30;77.70;;;;;;6312240;22;20416;-84
2023/05/18 05:54:04;;;;;;;0.85;0.70;;;16.30;77.10;;;;;;6340335;22;20045;-84
2023/05/18 05:56:30;;;;;;;0.73;0.60;;;16.30;76.60;;;;;;6339895;22;20005;-85
2023/05/18 05:58:56;;;;;;;1.20;0.60;;;16.40;76.40;;;;;;6340151;22;20417;-84
2023/05/18 06:01:21;;;;;;;0.95;0.60;;;16.40;76.60;;;;;;6339716;22;20007;-90
2023/05/18 06:03:47;;;;;;;1.02;0.70;;;16.50;77.10;;;;;;6339733;22;20456;-87
2023/05/18 06:06:13;;;;;;;1.05;0.60;;;16.50;76.60;;;;;;6340014;22;20003;-87
2023/05/18 06:08:39;;;;;;;4.15;0.57;;;16.50;76.90;;;;;;6339891;22;20003;-86
2023/05/18 06:11:05;;;;;;;1.30;0.60;;;16.60;77.20;;;;;;6338725;22;20006;-77
2023/05/18 06:13:31;;;;;;;1.10;0.70;;;16.60;76.70;;;;;;6339404;22;20052;-86
2023/05/18 06:15:57;;;;;;;1.27;0.85;;;16.70;76.10;;;;;;6339524;22;20006;-86
2023/05/18 06:18:23;;;;;;;0.70;0.50;;;16.70;76.50;;;;;;6338519;22;20080;-78
2023/05/18 06:20:49;;;;;;;2.35;0.40;;;16.80;76.30;;;;;;6339429;22;19998;-78
2023/05/18 06:23:14;;;;;;;2.25;0.77;;;16.80;76.30;;;;;;6311431;22;20019;-78
2023/05/18 06:25:40;;;;;;;0.88;0.52;;;16.80;75.30;;;;;;6339498;22;20077;-79
2023/05/18 06:28:06;;;;;;;0.98;0.50;;;16.80;75.30;;;;;;6339591;22;20306;-80
2023/05/18 06:30:31;;;;;;;2.38;0.80;;;16.90;76.10;;;;;;6339245;22;20005;-79
2023/05/18 06:32:57;;;;;;;1.10;0.60;;;17.00;73.10;;;;;;6339655;22;20002;-87
2023/05/18 06:35:23;;;;;;;0.60;0.50;;;17.00;74.70;;;;;;6339066;22;20009;-90
2023/05/18 06:37:49;;;;;;;0.90;0.55;;;17.10;76.30;;;;;;6338941;22;19994;-86
2023/05/18 06:40:15;;;;;;;1.10;0.68;;;17.10;76.10;;;;;;6339150;22;20013;-86
2023/05/18 06:42:40;;;;;;;1.33;0.60;;;17.20;74.50;;;;;;6338919;22;20030;-75
2023/05/18 06:45:09;;;;;;;0.43;0.32;;;17.30;74.50;;;;;;6310491;22;20007;-76
2023/05/18 06:47:35;;;;;;;0.75;0.40;;;17.40;74.60;;;;;;6311217;22;20003;-75
2023/05/18 06:50:01;;;;;;;2.05;0.75;;;17.40;74.60;;;;;;6338773;22;19999;-76
2023/05/18 06:52:27;;;;;;;1.02;0.60;;;17.40;74.80;;;;;;6339768;22;20149;-84
2023/05/18 06:54:52;;;;;;;0.45;0.45;;;17.50;74.50;;;;;;6339742;22;20001;-84
2023/05/18 06:57:18;;;;;;;1.60;0.50;;;17.50;74.10;;;;;;6339758;22;19999;-84
2023/05/18 06:59:44;;;;;;;0.93;0.75;;;17.60;74.10;;;;;;6339556;22;20020;-84
2023/05/18 07:02:09;;;;;;;1.95;0.70;;;17.60;73.80;;;;;;6339405;22;20024;-84
2023/05/18 07:04:35;;;;;;;0.70;0.50;;;17.60;73.20;;;;;;6339819;22;20022;-84
2023/05/18 07:07:01;;;;;;;1.25;0.60;;;17.70;73.70;;;;;;6340370;22;20034;-84
2023/05/18 07:09:27;;;;;;;1.08;0.50;;;17.80;73.20;;;;;;6339219;22;20436;-84
2023/05/18 07:11:53;;;;;;;1.15;0.60;;;17.80;73.50;;;;;;6338985;22;20003;-84
2023/05/18 07:14:18;;;;;;;1.13;0.70;;;17.80;74.00;;;;;;6339461;22;20065;-84
2023/05/18 07:16:46;;;;;;;0.80;0.60;;;17.80;73.90;;;;;;6339446;22;20021;-84
2023/05/18 07:19:12;;;;;;;2.05;0.55;;;17.90;74.40;;;;;;6326458;22;19999;-83
2023/05/18 07:21:38;;;;;;;1.75;0.65;;;17.90;74.00;;;;;;6338821;22;20002;-84
2023/05/18 07:24:04;;;;;;;0.90;0.70;;;17.90;73.00;;;;;;6339413;22;20026;-84
2023/05/18 07:26:29;;;;;;;0.80;0.43;;;18.00;74.10;;;;;;6338955;22;20301;-84
2023/05/18 07:28:55;;;;;;;1.05;0.57;;;18.00;73.40;;;;;;6339178;22;20042;-84
2023/05/18 07:31:21;;;;;;;2.83;0.65;;;18.10;73.50;;;;;;6339174;22;20486;-84
2023/05/18 07:33:47;;;;;;;1.75;0.82;;;18.10;72.30;;;;;;6339324;22;20006;-83
2023/05/18 07:36:13;;;;;;;0.70;0.50;;;18.10;72.60;;;;;;6338608;22;19994;-84
2023/05/18 07:38:38;;;;;;;0.57;0.40;;;18.20;73.30;;;;;;6339169;22;19998;-84
2023/05/18 07:41:04;;;;;;;1.00;0.60;;;18.30;72.50;;;;;;6339167;22;20425;-84
2023/05/18 07:43:30;;;;;;;1.70;0.65;;;18.30;72.30;;;;;;6339334;22;20024;-84
2023/05/18 07:45:55;;;;;;;3.13;0.68;;;18.40;72.30;;;;;;6338917;22;20384;-84
2023/05/18 07:48:21;;;;;;;2.35;0.60;;;18.50;71.80;;;;;;6339096;22;20006;-83
2023/05/18 07:50:47;;;;;;;0.50;0.43;;;18.50;70.70;;;;;;6339259;22;20037;-84
2023/05/18 07:53:12;;;;;;;0.80;0.60;;;18.60;71.60;;;;;;6339240;22;20071;-84
2023/05/18 07:55:40;;;;;;;2.05;0.52;;;18.60;71.30;;;;;;6339013;22;19999;-84
2023/05/18 07:58:06;;;;;;;0.68;0.55;;;18.70;71.90;;;;;;6339101;22;19998;-84
2023/05/18 08:00:32;;;;;;;2.67;0.60;;;18.70;72.20;;;;;;6339464;22;20484;-84
2023/05/18 08:02:59;;;;;;;1.10;0.80;;;18.80;72.30;;;;;;6337679;22;20026;-87
2023/05/18 08:05:25;;;;;;;0.40;0.40;;;18.90;71.50;;;;;;6338378;22;20003;-83
2023/05/18 08:07:51;;;;;;;0.70;0.60;;;18.90;71.20;;;;;;6338375;22;20004;-84
2023/05/18 08:10:17;;;;;;;0.70;0.60;;;19.00;71.40;;;;;;6336945;22;20474;-84
2023/05/18 08:12:43;;;;;;;1.15;0.40;;;19.00;71.20;;;;;;6337856;22;19995;-84
2023/05/18 08:15:09;;;;;;;0.60;0.50;;;19.10;70.80;;;;;;6337233;22;20006;-84
2023/05/18 08:17:35;;;;;;;1.95;0.52;;;19.10;71.10;;;;;;6338467;22;19995;-84
2023/05/18 08:20:01;;;;;;;2.45;0.70;;;19.20;70.90;;;;;;6338422;22;19998;-84
2023/05/18 08:22:27;;;;;;;1.85;0.60;;;19.20;70.00;;;;;;6338371;22;20082;-84
2023/05/18 08:24:53;;;;;;;0.77;0.50;;;19.20;70.30;;;;;;6338643;22;19999;-84
2023/05/18 08:27:19;;;;;;;1.08;0.60;;;19.20;70.00;;;;;;6338585;22;20340;-83
2023/05/18 08:29:45;;;;;;;0.50;0.50;;;19.30;67.70;;;;;;6338731;22;20018;-83
2023/05/18 08:32:10;;;;;;;0.50;0.43;;;19.30;68.40;;;;;;6310624;22;20006;-83
2023/05/18 08:34:36;;;;;;;1.52;0.63;;;19.20;68.80;;;;;;6337802;22;19999;-84
2023/05/18 08:37:02;;;;;;;1.17;0.40;;;19.40;69.10;;;;;;6338526;22;20027;-84
2023/05/18 08:39:30;;;;;;;0.65;0.40;;;19.40;69.30;;;;;;6339973;22;20439;-75
2023/05/18 08:42:06;;;;;;;0.40;0.40;;;19.40;69.00;;;;;;6340666;22;20009;-75
2023/05/18 08:44:43;;;;;;;0.43;0.30;;;19.50;67.90;;;;;;6340401;22;20007;-75
2023/05/18 08:47:10;;;;;;;0.43;0.40;;;19.50;68.30;;;;;;6340272;22;19999;-75
2023/05/18 08:49:36;;;;;;;0.65;0.40;;;19.60;68.00;;;;;;6312998;22;20436;-75
2023/05/18 08:52:04;;;;;;;1.08;0.50;;;19.60;67.70;;;;;;6340326;22;20421;-75
2023/05/18 08:54:31;;;;;;;0.43;0.30;;;19.70;66.40;;;;;;6339970;22;19995;-75
2023/05/18 08:56:58;;;;;;;3.70;0.60;;;19.70;67.00;;;;;;6340285;22;20064;-75
2023/05/18 08:59:30;;;;;;;0.93;0.52;;;19.80;67.60;;;;;;6340431;22;20019;-75
2023/05/18 09:01:56;;;;;;;1.20;0.63;;;19.90;66.80;;;;;;6340035;22;20078;-75
2023/05/18 09:04:23;;;;;;;0.30;0.30;;;20.00;66.90;;;;;;6339799;22;20023;-75
2023/05/18 09:06:52;;;;;;;0.95;0.60;;;20.10;66.00;;;;;;6339786;22;20003;-75
2023/05/18 09:09:20;;;;;;;0.55;0.52;;;20.20;66.40;;;;;;6340135;22;20078;-75
2023/05/18 09:11:47;;;;;;;2.05;0.47;;;20.20;66.70;;;;;;6339769;22;20003;-75
2023/05/18 09:14:13;;;;;;;0.60;0.50;;;20.40;66.70;;;;;;6339903;22;20421;-75
2023/05/18 09:16:38;;;;;;;1.50;0.60;;;20.40;66.30;;;;;;6312614;22;20090;-75
2023/05/18 09:19:04;;;;;;;1.27;0.55;;;20.50;66.20;;;;;;6339752;22;20475;-75
2023/05/18 09:21:31;;;;;;;0.85;0.50;;;20.50;66.50;;;;;;6339791;22;20053;-75
2023/05/18 09:23:58;;;;;;;0.57;0.40;;;20.60;66.40;;;;;;6339391;22;20051;-75
2023/05/18 09:26:24;;;;;;;1.92;0.85;;;20.60;65.90;;;;;;6339430;22;20010;-76
2023/05/18 09:28:53;;;;;;;0.43;0.40;;;20.60;66.10;;;;;;6339766;22;20345;-76
2023/05/18 09:31:20;;;;;;;2.10;0.40;;;20.70;65.30;;;;;;6339811;22;20038;-76
2023/05/18 09:33:47;;;;;;;0.95;0.45;;;20.70;65.30;;;;;;6339306;22;20002;-77
2023/05/18 09:36:16;;;;;;;1.08;0.60;;;20.70;63.30;;;;;;6339457;22;20066;-76
2023/05/18 09:38:45;;;;;;;1.33;0.60;;;20.70;64.40;;;;;;6338613;22;19999;-76
2023/05/18 09:41:17;;;;;;;0.45;0.45;;;20.70;63.80;;;;;;6339117;22;19999;-77
2023/05/18 09:43:45;;;;;;;0.68;0.50;;;20.80;61.80;;;;;;6339986;22;20058;-77
2023/05/18 09:46:12;;;;;;;1.05;0.40;;;20.80;62.90;;;;;;6327611;22;20049;-77
2023/05/18 09:48:53;;;;;;;0.30;0.30;;;20.80;63.20;;;;;;6339108;22;19999;-77
2023/05/18 09:51:20;;;;;;;;;;;20.90;63.30;;;;;;6339933;22;20034;-77
2023/05/18 09:53:56;;;;;;;1.42;0.50;;;20.90;63.20;;;;;;6339406;22;19906;-77
2023/05/18 09:56:25;;;;;;;1.75;0.60;;;21.00;63.70;;;;;;6340308;22;20479;-77
2023/05/18 09:58:52;;;;;;;0.75;0.30;;;21.10;63.30;;;;;;6338556;22;20074;-76
2023/05/18 10:01:18;;;;;;;1.08;0.43;;;21.30;63.70;;;;;;6340361;22;20007;-76
2023/05/18 10:03:47;;;;;;;0.50;0.40;;;21.40;62.30;;;;;;6339451;22;20068;-85
2023/05/18 10:06:13;;;;;;;0.60;0.60;;;21.50;62.60;;;;;;6327956;22;20534;-84
2023/05/18 10:08:40;;;;;;;0.70;0.57;;;21.50;61.60;;;;;;6340342;22;20036;-84
2023/05/18 10:11:06;;;;;;;0.80;0.40;;;21.50;62.10;;;;;;6340216;22;20421;-84
2023/05/18 10:13:33;;;;;;;0.68;0.50;;;21.50;62.30;;;;;;6340308;22;20187;-84
2023/05/18 10:16:04;;;;;;;0.75;0.40;;;21.60;62.20;;;;;;6340400;22;20086;-84
2023/05/18 10:18:37;;;;;;;0.40;0.40;;;21.70;62.20;;;;;;6312569;22;20314;-84
2023/05/18 10:21:04;;;;;;;0.60;0.40;;;21.70;62.00;;;;;;6340486;22;20005;-84
2023/05/18 10:23:32;;;;;;;0.20;0.20;;;21.70;61.40;;;;;;6313344;22;20309;-84
2023/05/18 10:25:58;;;;;;;0.30;0.28;;;21.80;61.40;;;;;;6340653;22;20029;-85
2023/05/18 10:28:37;;;;;;;2.80;0.43;;;21.90;61.00;;;;;;6339800;22;20010;-85
2023/05/18 10:31:05;;;;;;;0.43;0.40;;;21.90;61.70;;;;;;6338468;22;20053;-85
2023/05/18 10:33:31;;;;;;;0.70;0.45;;;21.90;61.00;;;;;;6339320;22;20137;-84
2023/05/18 10:35:57;;;;;;;2.75;0.50;;;21.90;61.20;;;;;;6339362;22;19999;-84
2023/05/18 10:38:24;;;;;;;1.60;0.60;;;21.90;60.70;;;;;;6339535;22;20005;-85
2023/05/18 10:40:52;;;;;;;0.50;0.40;;;21.90;60.40;;;;;;6339604;22;20003;-77
2023/05/18 10:43:20;;;;;;;0.50;0.50;;;21.80;59.10;;;;;;6339724;22;20368;-77
2023/05/18 10:45:48;;;;;;;0.50;0.40;;;21.70;60.80;;;;;;6339475;22;19999;-77
2023/05/18 10:48:15;;;;;;;0.50;0.50;;;21.70;60.50;;;;;;6339052;22;20007;-77
2023/05/18 10:50:41;;;;;;;2.97;0.68;;;21.80;60.60;;;;;;6338954;22;20267;-77
2023/05/18 10:53:09;;;;;;;1.10;0.30;;;21.70;60.60;;;;;;6338992;22;20052;-76
2023/05/18 10:55:35;;;;;;;1.42;0.60;;;21.80;60.50;;;;;;6338859;22;20021;-76
2023/05/18 10:58:11;;;;;;;0.50;0.50;;;21.80;60.50;;;;;;6338776;22;19991;-77
2023/05/18 11:00:38;;;;;;;1.42;0.47;;;21.90;60.70;;;;;;6338584;22;20052;-77
2023/05/18 11:03:11;;;;;;;0.28;0.28;;;22.00;60.90;;;;;;6338751;22;20003;-77
2023/05/18 11:05:38;;;;;;;1.23;0.50;;;22.00;60.60;;;;;;6310990;22;20321;-77
2023/05/18 11:08:04;;;;;;;0.73;0.40;;;22.10;60.20;;;;;;6311292;22;20094;-77
2023/05/18 11:10:41;;;;;;;0.70;0.30;;;22.20;59.80;;;;;;6338791;22;19999;-77
2023/05/18 11:13:13;;;;;;;0.40;0.32;;;22.40;60.30;;;;;;6338899;22;20094;-77
2023/05/18 11:15:54;;;;;;;0.70;0.40;;;22.50;60.90;;;;;;6338570;22;19999;-77
2023/05/18 11:18:50;;;;;;;1.20;0.50;;;22.80;60.40;;;;;;6338941;22;20006;-77
2023/05/18 11:21:34;;;;;;;0.88;0.45;;;23.00;59.80;;;;;;6339304;22;20080;-77
2023/05/18 11:24:23;;;;;;;1.15;0.60;;;23.10;60.70;;;;;;6339014;22;19999;-77
2023/05/18 11:26:52;;;;;;;1.00;0.60;;;23.40;59.30;;;;;;6311011;22;20010;-77
2023/05/18 11:29:19;;;;;;;0.82;0.50;;;23.50;59.70;;;;;;6338119;22;20019;-77
2023/05/18 11:31:47;;;;;;;0.40;0.40;;;23.70;59.50;;;;;;6311398;22;20006;-77
2023/05/18 11:34:43;;;;;;;0.57;0.40;;;23.90;60.50;;;;;;6338795;22;20009;-84
2023/05/18 11:37:10;;;;;;;1.10;0.50;;;24.10;59.60;;;;;;6312105;22;20353;-84
2023/05/18 11:39:36;;;;;;;0.93;0.32;;;24.20;58.60;;;;;;6339238;22;20005;-83
2023/05/18 11:42:09;;;;;;;0.68;0.50;;;24.30;58.90;;;;;;6339193;22;20044;-77
2023/05/18 11:44:35;;;;;;;0.75;0.45;;;24.40;57.40;;;;;;6339184;22;19999;-77
2023/05/18 11:47:07;;;;;;;0.43;0.43;;;24.40;57.80;;;;;;6339218;22;20010;-77
2023/05/18 11:49:47;;;;;;;1.10;0.52;;;24.40;57.90;;;;;;6338635;22;20052;-84
2023/05/18 11:52:23;;;;;;;0.95;0.40;;;24.50;57.90;;;;;;6338658;22;20318;-83
2023/05/18 11:54:57;;;;;;;0.75;0.52;;;24.50;56.80;;;;;;6339153;22;19999;-84
2023/05/18 11:57:33;;;;;;;3.05;0.55;;;24.50;57.90;;;;;;6339257;22;19998;-83
2023/05/18 12:00:00;;;;;;;0.98;0.50;;;24.60;58.00;;;;;;6339767;22;20313;-84
2023/05/18 12:02:33;;;;;;;0.20;0.20;;;24.60;57.00;;;;;;6339511;22;20317;-84
2023/05/18 12:04:59;;;;;;;0.40;0.40;;;24.50;55.90;;;;;;6339738;22;20009;-84
2023/05/18 12:07:29;;;;;;;0.40;0.40;;;24.40;56.30;;;;;;6339454;22;20367;-83
2023/05/18 12:10:03;;;;;;;1.30;0.50;;;24.30;56.70;;;;;;6338708;22;20378;-84
2023/05/18 12:12:30;;;;;;;1.10;0.57;;;24.30;55.90;;;;;;6339084;22;19998;-83
2023/05/18 12:14:57;;;;;;;0.47;0.40;;;24.20;56.70;;;;;;6339051;22;19999;-84
2023/05/18 12:17:39;;;;;;;0.40;0.40;;;24.20;56.60;;;;;;6338937;22;19999;-83
2023/05/18 12:20:11;;;;;;;1.33;0.50;;;24.20;55.50;;;;;;6338628;22;20003;-84
2023/05/18 12:22:38;;;;;;;6.18;0.90;;;24.30;55.60;;;;;;6338713;22;20031;-83
2023/05/18 12:25:04;;;;;;;0.68;0.63;;;24.60;55.40;;;;;;6338521;22;20078;-84
2023/05/18 12:27:31;;;;;;;2.08;1.00;;;24.90;55.50;;;;;;6338833;22;20409;-84
2023/05/18 12:29:56;;;;;;;1.58;0.45;;;25.20;53.80;;;;;;6338390;22;20021;-85
2023/05/18 12:32:22;;;;;;;0.85;0.50;;;25.30;55.00;;;;;;6338684;22;20074;-85
2023/05/18 12:34:50;;;;;;;1.30;0.60;;;25.40;54.90;;;;;;6339337;22;20006;-85
2023/05/18 12:37:16;;;;;;;1.85;0.47;;;25.40;52.00;;;;;;6335629;22;20073;-85
2023/05/18 12:39:44;;;;;;;0.65;0.50;;;25.30;53.50;;;;;;6335982;22;20023;-84
2023/05/18 12:42:14;;;;;;;0.55;0.50;;;25.40;52.90;;;;;;6338373;22;19999;-84
2023/05/18 12:44:44;;;;;;;0.45;0.30;;;25.30;53.70;;;;;;6336799;22;20010;-85
2023/05/18 12:47:13;;;;;;;;;;;25.20;53.70;;;;;;6311045;22;20309;-84
2023/05/18 12:49:40;;;;;;;0.88;0.45;;;25.10;53.70;;;;;;6337945;22;19944;-84
2023/05/18 12:52:13;;;;;;;1.48;0.60;;;25.00;54.10;;;;;;6337808;22;20003;-85